createdAt,value
2022-10-04T00:00:46.085Z,4.70
2022-10-04T00:03:25.444Z,2.47
2022-10-04T00:05:56.167Z,3.00
2022-10-04T00:08:30.885Z,3.37
2022-10-04T00:11:05.043Z,2.90
2022-10-04T00:13:33.580Z,6.80
2022-10-04T00:16:00.399Z,5.60
2022-10-04T00:18:47.242Z,3.10
2022-10-04T00:21:13.820Z,2.50
2022-10-04T00:23:43.552Z,2.90
2022-10-04T00:26:25.326Z,2.63
2022-10-04T00:28:52.452Z,2.03
2022-10-04T00:31:20.751Z,2.63
2022-10-04T00:33:58.449Z,3.47
2022-10-04T00:36:24.925Z,3.23
2022-10-04T00:39:09.424Z,2.87
2022-10-04T00:41:47.045Z,5.03
2022-10-04T00:44:34.998Z,4.23
2022-10-04T00:47:05.006Z,2.30
2022-10-04T00:49:40.321Z,2.20
2022-10-04T00:52:22.671Z,1.60
2022-10-04T00:54:57.137Z,4.77
2022-10-04T00:57:32.802Z,2.60
2022-10-04T01:00:03.926Z,2.47
2022-10-04T01:02:42.777Z,3.30
2022-10-04T01:05:18.093Z,7.73
2022-10-04T01:07:52.872Z,4.30
2022-10-04T01:10:22.276Z,2.20
2022-10-04T01:13:09.671Z,2.60
2022-10-04T01:15:53.341Z,2.00
2022-10-04T01:18:29.098Z,3.03
2022-10-04T01:21:18.614Z,2.23
2022-10-04T01:23:46.552Z,6.17
2022-10-04T01:26:32.279Z,2.50
2022-10-04T01:29:24.967Z,2.87
2022-10-04T01:31:54.107Z,2.80
2022-10-04T01:34:26.582Z,3.40
2022-10-04T01:37:00.377Z,2.73
2022-10-04T01:39:28.575Z,4.30
2022-10-04T01:42:08.977Z,3.70
2022-10-04T01:44:57.045Z,2.67
2022-10-04T01:47:45.231Z,2.10
2022-10-04T01:50:18.960Z,2.53
2022-10-04T01:52:54.173Z,1.83
2022-10-04T01:55:25.527Z,2.30
2022-10-04T01:58:08.675Z,3.90
2022-10-04T02:00:40.926Z,2.17
2022-10-04T02:03:18.756Z,4.53
2022-10-04T02:05:54.412Z,3.80
2022-10-04T02:08:31.366Z,2.40
2022-10-04T02:10:59.648Z,2.70
2022-10-04T02:13:29.808Z,3.53
2022-10-04T02:15:58.166Z,2.77
2022-10-04T02:18:26.881Z,2.10
2022-10-04T02:20:55.009Z,2.40
2022-10-04T02:23:22.869Z,2.00
2022-10-04T02:25:49.566Z,3.90
2022-10-04T02:28:18.202Z,3.17
2022-10-04T02:31:09.866Z,5.40
2022-10-04T02:33:46.791Z,3.17
2022-10-04T02:36:14.490Z,5.10
2022-10-04T02:42:35.388Z,3.10
2022-10-04T02:45:19.956Z,2.50
2022-10-04T02:48:02.222Z,1.80
2022-10-04T02:50:39.998Z,4.10
2022-10-04T02:53:22.328Z,4.63
2022-10-04T02:55:49.282Z,2.20
2022-10-04T02:58:20.088Z,3.17
2022-10-04T03:00:50.565Z,2.57
2022-10-04T03:03:23.432Z,2.40
2022-10-04T03:06:15.570Z,4.47
2022-10-04T03:08:48.727Z,3.40
2022-10-04T03:11:16.405Z,5.83
2022-10-04T03:13:48.292Z,2.37
2022-10-04T03:16:15.718Z,3.27
2022-10-04T03:18:43.919Z,2.27
2022-10-04T03:21:14.499Z,4.50
2022-10-04T03:23:42.252Z,2.00
2022-10-04T03:26:21.425Z,4.50
2022-10-04T03:28:48.231Z,2.30
2022-10-04T03:31:15.795Z,3.60
2022-10-04T03:33:44.170Z,3.33
2022-10-04T03:36:17.005Z,4.63
2022-10-04T03:38:46.421Z,3.53
2022-10-04T03:41:14.525Z,5.13
2022-10-04T03:43:46.069Z,2.23
2022-10-04T03:46:14.239Z,2.60
2022-10-04T03:48:45.869Z,4.80
2022-10-04T03:51:19.559Z,3.43
2022-10-04T03:53:49.632Z,3.50
2022-10-04T03:56:27.192Z,2.70
2022-10-04T03:58:55.068Z,3.90
2022-10-04T04:01:31.861Z,3.47
2022-10-04T04:04:22.030Z,2.80
2022-10-04T04:06:55.924Z,2.97
2022-10-04T04:09:33.165Z,3.23
2022-10-04T04:12:02.603Z,2.20
2022-10-04T04:14:29.286Z,5.63
2022-10-04T04:17:35.845Z,3.27
2022-10-04T04:20:07.725Z,3.70
2022-10-04T04:22:36.113Z,3.50
2022-10-04T04:25:09.033Z,2.80
2022-10-04T04:27:40.444Z,5.33
2022-10-04T04:30:08.825Z,5.90
2022-10-04T04:32:37.707Z,2.17
2022-10-04T04:35:08.358Z,3.57
2022-10-04T04:37:36.547Z,3.20
2022-10-04T04:40:24.856Z,3.83
2022-10-04T04:42:52.153Z,5.73
2022-10-04T04:45:31.212Z,2.93
2022-10-04T04:47:59.848Z,2.57
2022-10-04T04:50:31.015Z,3.37
2022-10-04T04:53:09.925Z,2.80
2022-10-04T04:56:02.797Z,4.40
2022-10-04T04:58:35.557Z,3.30
2022-10-04T05:01:06.781Z,5.40
2022-10-04T05:03:34.125Z,3.47
2022-10-04T05:06:02.835Z,3.37
2022-10-04T05:08:31.422Z,4.03
2022-10-04T05:10:57.893Z,2.60
2022-10-04T05:13:39.959Z,2.50
2022-10-04T05:16:13.833Z,5.30
2022-10-04T05:18:40.563Z,4.57
2022-10-04T05:21:22.750Z,2.77
2022-10-04T05:23:49.720Z,3.30
2022-10-04T05:26:26.139Z,4.90
2022-10-04T05:28:53.279Z,3.10
2022-10-04T05:31:43.412Z,2.53
2022-10-04T05:34:31.809Z,3.97
2022-10-04T05:37:06.511Z,2.80
2022-10-04T05:39:48.067Z,2.97
2022-10-04T05:42:23.381Z,4.87
2022-10-04T05:44:54.059Z,3.07
2022-10-04T05:47:24.935Z,3.70
2022-10-04T05:50:00.792Z,3.40
2022-10-04T05:52:35.934Z,4.27
2022-10-04T05:55:23.966Z,3.30
2022-10-04T05:58:19.279Z,5.23
2022-10-04T06:01:14.573Z,3.17
2022-10-04T06:03:59.895Z,10.93
2022-10-04T06:06:39.578Z,2.83
2022-10-04T06:09:22.577Z,3.33
2022-10-04T06:11:55.655Z,3.23
2022-10-04T06:14:47.675Z,3.10
2022-10-04T06:17:40.605Z,2.87
2022-10-04T06:20:24.285Z,3.17
2022-10-04T06:23:00.310Z,2.90
2022-10-04T06:25:37.396Z,7.10
2022-10-04T06:28:20.400Z,3.30
2022-10-04T06:31:21.045Z,3.40
2022-10-04T06:33:57.394Z,3.10
2022-10-04T06:36:47.885Z,4.77
2022-10-04T06:39:35.513Z,2.83
2022-10-04T06:42:13.592Z,3.53
2022-10-04T06:45:00.520Z,4.47
2022-10-04T06:47:43.199Z,5.63
2022-10-04T06:50:31.691Z,3.00
2022-10-04T06:53:16.444Z,3.57
2022-10-04T06:55:48.341Z,3.50
2022-10-04T06:58:40.932Z,2.83
2022-10-04T07:01:43.110Z,4.13
2022-10-04T07:04:45.049Z,2.60
2022-10-04T07:07:36.232Z,5.53
2022-10-04T07:10:17.825Z,6.20
2022-10-04T07:13:13.234Z,11.23
2022-10-04T07:15:54.269Z,6.70
2022-10-04T07:18:28.933Z,9.80
2022-10-04T07:21:08.342Z,4.97
2022-10-04T07:23:44.187Z,3.93
2022-10-04T07:26:53.859Z,3.43
2022-10-04T07:29:31.985Z,4.83
2022-10-04T07:32:05.485Z,6.03
2022-10-04T07:34:52.431Z,7.60
2022-10-04T07:37:21.029Z,7.47
2022-10-04T07:40:24.846Z,7.03
2022-10-04T07:42:59.833Z,5.03
2022-10-04T07:45:32.681Z,3.83
2022-10-04T07:48:09.991Z,5.33
2022-10-04T07:50:58.084Z,9.00
2022-10-04T07:53:47.938Z,4.37
2022-10-04T07:56:45.637Z,4.93
2022-10-04T07:59:42.853Z,5.73
2022-10-04T08:02:30.979Z,4.27
2022-10-04T08:05:15.737Z,5.20
2022-10-04T08:08:13.014Z,4.83
2022-10-04T08:11:12.704Z,7.40
2022-10-04T08:13:52.402Z,4.80
2022-10-04T08:16:31.056Z,7.27
2022-10-04T08:19:12.507Z,5.63
2022-10-04T08:22:02.043Z,12.87
2022-10-04T08:24:34.333Z,5.90
2022-10-04T08:27:31.069Z,5.93
2022-10-04T08:30:16.556Z,4.10
2022-10-04T08:32:51.144Z,5.53
2022-10-04T08:35:30.191Z,22.43
2022-10-04T08:38:12.652Z,13.87
2022-10-04T08:41:00.911Z,6.53
2022-10-04T08:43:43.090Z,9.27
2022-10-04T08:46:40.991Z,21.73
2022-10-04T08:49:43.846Z,12.20
2022-10-04T08:52:45.824Z,10.17
2022-10-04T08:55:34.941Z,10.07
2022-10-04T08:58:13.873Z,8.73
2022-10-04T09:01:11.066Z,11.53
2022-10-04T09:04:15.049Z,7.77
2022-10-04T09:06:50.958Z,14.17
2022-10-04T09:09:29.737Z,10.13
2022-10-04T09:12:20.090Z,5.90
2022-10-04T09:14:56.112Z,9.00
2022-10-04T09:17:50.857Z,6.13
2022-10-04T09:20:40.034Z,7.43
2022-10-04T09:23:30.641Z,7.73
2022-10-04T09:26:23.878Z,6.10
2022-10-04T09:29:18.281Z,7.00
2022-10-04T09:32:03.407Z,4.83
2022-10-04T09:35:06.221Z,5.27
2022-10-04T09:37:51.375Z,11.93
2022-10-04T09:40:36.843Z,6.70
2022-10-04T09:43:29.084Z,6.70
2022-10-04T09:46:37.399Z,4.70
2022-10-04T09:49:14.413Z,5.03
2022-10-04T09:52:01.953Z,5.67
2022-10-04T09:54:47.569Z,10.90
2022-10-04T09:57:33.442Z,5.53
2022-10-04T10:00:28.264Z,4.80
2022-10-04T10:03:17.211Z,7.93
2022-10-04T10:06:24.380Z,4.50
2022-10-04T10:09:02.552Z,5.77
2022-10-04T10:12:05.505Z,6.60
2022-10-04T10:14:56.752Z,7.40
2022-10-04T10:17:47.697Z,7.93
2022-10-04T10:20:32.893Z,6.93
2022-10-04T10:23:34.261Z,7.80
2022-10-04T10:26:22.781Z,9.10
2022-10-04T10:29:26.388Z,6.20
2022-10-04T10:32:17.774Z,6.80
2022-10-04T10:35:10.141Z,5.97
2022-10-04T10:38:18.973Z,6.07
2022-10-04T10:41:19.136Z,6.50
2022-10-04T10:44:02.271Z,4.70
2022-10-04T10:46:58.289Z,6.70
2022-10-04T10:49:53.815Z,16.83
2022-10-04T10:52:57.384Z,45.80
2022-10-04T10:55:42.571Z,91.13
2022-10-04T10:58:53.501Z,121.67
2022-10-04T11:02:10.481Z,107.37
2022-10-04T11:04:57.792Z,137.10
2022-10-04T11:07:55.221Z,87.03
2022-10-04T11:11:11.290Z,37.33
2022-10-04T11:13:54.203Z,33.03
2022-10-04T11:16:50.042Z,33.20
2022-10-04T11:19:50.241Z,19.00
2022-10-04T11:22:54.219Z,25.77
2022-10-04T11:25:46.917Z,30.77
2022-10-04T11:28:19.701Z,18.23
2022-10-04T11:30:58.390Z,19.37
2022-10-04T11:34:16.364Z,33.63
2022-10-04T11:37:26.959Z,17.80
2022-10-04T11:40:23.532Z,36.33
2022-10-04T11:43:06.809Z,25.27
2022-10-04T11:46:12.237Z,16.80
2022-10-04T11:49:06.026Z,27.93
2022-10-04T11:52:17.555Z,14.30
2022-10-04T11:55:14.038Z,22.00
2022-10-04T11:57:52.385Z,24.00
2022-10-04T12:04:21.354Z,19.43
2022-10-04T12:07:35.878Z,19.80
2022-10-04T12:10:21.172Z,21.60
2022-10-04T12:13:38.376Z,19.33
2022-10-04T12:16:36.955Z,14.63
2022-10-04T12:19:20.814Z,15.50
2022-10-04T12:22:01.491Z,14.10
2022-10-04T12:24:57.829Z,14.90
2022-10-04T12:27:43.178Z,10.73
2022-10-04T12:30:53.856Z,12.43
2022-10-04T12:33:31.400Z,12.30
2022-10-04T12:36:24.536Z,17.70
2022-10-04T12:39:11.435Z,9.13
2022-10-04T12:42:07.627Z,13.27
2022-10-04T12:44:34.479Z,8.70
2022-10-04T12:47:10.179Z,8.03
2022-10-04T12:49:55.030Z,7.33
2022-10-04T12:52:25.354Z,4.03
2022-10-04T12:55:02.097Z,8.40
2022-10-04T12:57:37.952Z,9.20
2022-10-04T13:00:16.379Z,9.27
2022-10-04T13:03:02.404Z,8.03
2022-10-04T13:05:48.440Z,3.63
2022-10-04T13:08:39.679Z,6.60
2022-10-04T13:11:24.225Z,8.70
2022-10-04T13:14:28.221Z,8.20
2022-10-04T13:17:35.955Z,3.73
2022-10-04T13:20:20.732Z,3.80
2022-10-04T13:22:57.884Z,6.10
2022-10-04T13:25:46.629Z,3.13
2022-10-04T13:28:26.307Z,3.90
2022-10-04T13:31:24.287Z,5.50
2022-10-04T13:34:23.955Z,5.90
2022-10-04T13:37:16.657Z,4.30
2022-10-04T13:40:04.842Z,3.80
2022-10-04T13:42:53.441Z,4.83
2022-10-04T13:45:58.900Z,3.63
2022-10-04T13:48:50.890Z,12.20
2022-10-04T13:51:48.432Z,3.57
2022-10-04T13:54:55.910Z,6.53
2022-10-04T13:57:41.640Z,4.07
2022-10-04T14:00:15.042Z,7.07
2022-10-04T14:03:12.026Z,3.70
2022-10-04T14:06:19.895Z,4.27
2022-10-04T14:09:13.123Z,4.67
2022-10-04T14:12:04.167Z,7.30
2022-10-04T14:14:40.234Z,6.20
2022-10-04T14:17:42.907Z,2.87
2022-10-04T14:20:39.025Z,3.00
2022-10-04T14:23:53.776Z,5.80
2022-10-04T14:26:39.402Z,4.07
2022-10-04T14:29:28.712Z,6.53
2022-10-04T14:32:20.186Z,2.67
2022-10-04T14:35:02.274Z,5.07
2022-10-04T14:37:38.775Z,6.00
2022-10-04T14:40:32.955Z,9.90
2022-10-04T14:43:21.035Z,3.53
2022-10-04T14:46:08.630Z,3.70
2022-10-04T14:49:05.038Z,5.53
2022-10-04T14:51:37.668Z,3.20
2022-10-04T14:54:11.904Z,4.80
2022-10-04T14:56:58.927Z,6.67
2022-10-04T15:00:04.274Z,4.10
2022-10-04T15:02:33.883Z,2.87
2022-10-04T15:05:22.761Z,11.60
2022-10-04T15:08:15.827Z,5.00
2022-10-04T15:10:52.184Z,3.20
2022-10-04T15:13:22.155Z,4.40
2022-10-04T15:16:12.924Z,4.80
2022-10-04T15:18:41.012Z,6.23
2022-10-04T15:21:33.653Z,3.00
2022-10-04T15:24:15.543Z,2.53
2022-10-04T15:27:21.033Z,3.30
2022-10-04T15:30:10.225Z,2.47
2022-10-04T15:33:13.782Z,6.00
2022-10-04T15:35:58.736Z,6.40
2022-10-04T15:38:32.784Z,8.33
2022-10-04T15:41:29.379Z,4.47
2022-10-04T15:44:11.562Z,4.07
2022-10-04T15:46:56.446Z,4.27
2022-10-04T15:49:26.052Z,4.23
2022-10-04T15:52:16.967Z,3.30
2022-10-04T15:55:20.905Z,3.63
2022-10-04T15:57:47.392Z,3.77
2022-10-04T16:00:46.907Z,3.87
2022-10-04T16:03:47.408Z,6.93
2022-10-04T16:06:28.448Z,3.00
2022-10-04T16:09:19.751Z,4.63
2022-10-04T16:12:08.273Z,4.27
2022-10-04T16:15:15.644Z,2.83
2022-10-04T16:17:51.292Z,4.43
2022-10-04T16:20:36.209Z,5.40
2022-10-04T16:23:23.938Z,5.10
2022-10-04T16:25:52.334Z,6.13
2022-10-04T16:28:31.093Z,4.60
2022-10-04T16:31:20.557Z,5.03
2022-10-04T16:34:07.114Z,7.13
2022-10-04T16:36:55.098Z,4.47
2022-10-04T16:40:02.464Z,5.60
2022-10-04T16:42:54.879Z,5.00
2022-10-04T16:45:36.467Z,5.90
2022-10-04T16:48:22.543Z,5.30
2022-10-04T16:51:23.111Z,7.00
2022-10-04T16:54:09.157Z,10.50
2022-10-04T16:56:56.192Z,6.23
2022-10-04T16:59:38.057Z,4.83
2022-10-04T17:02:23.528Z,5.00
2022-10-04T17:05:02.130Z,6.00
2022-10-04T17:07:38.107Z,6.93
2022-10-04T17:10:19.942Z,6.03
2022-10-04T17:13:06.689Z,5.10
2022-10-04T17:15:33.197Z,5.27
2022-10-04T17:18:08.236Z,10.03
2022-10-04T17:20:44.052Z,4.07
2022-10-04T17:23:16.344Z,4.47
2022-10-04T17:25:52.106Z,4.17
2022-10-04T17:28:35.265Z,6.00
2022-10-04T17:31:42.785Z,3.53
2022-10-04T17:34:36.078Z,12.43
2022-10-04T17:37:20.738Z,8.70
2022-10-04T17:40:13.276Z,5.80
2022-10-04T17:42:43.283Z,4.00
2022-10-04T17:45:32.058Z,5.80
2022-10-04T17:48:32.843Z,5.87
2022-10-04T17:51:55.596Z,4.43
2022-10-04T17:54:55.103Z,5.07
2022-10-04T17:57:52.185Z,3.03
2022-10-04T18:00:28.432Z,7.93
2022-10-04T18:02:59.702Z,5.07
2022-10-04T18:05:41.550Z,6.10
2022-10-04T18:08:11.226Z,2.10
2022-10-04T18:10:48.192Z,3.10
2022-10-04T18:13:27.766Z,5.00
2022-10-04T18:16:24.489Z,2.93
2022-10-04T18:18:51.180Z,4.30
2022-10-04T18:21:32.300Z,3.70
2022-10-04T18:24:17.366Z,4.30
2022-10-04T18:27:15.313Z,3.37
2022-10-04T18:29:44.320Z,3.23
2022-10-04T18:32:26.053Z,3.10
2022-10-04T18:34:57.891Z,5.00
2022-10-04T18:37:38.632Z,3.50
2022-10-04T18:40:21.365Z,3.43
2022-10-04T18:42:57.786Z,2.10
2022-10-04T18:45:25.624Z,3.83
2022-10-04T18:47:53.172Z,5.73
2022-10-04T18:50:29.155Z,4.10
2022-10-04T18:53:13.425Z,10.30
2022-10-04T18:55:55.101Z,12.10
2022-10-04T18:59:07.016Z,14.23
2022-10-04T19:02:03.040Z,10.10
2022-10-04T19:04:35.504Z,11.67
2022-10-04T19:07:46.398Z,7.47
2022-10-04T19:10:27.337Z,8.57
2022-10-04T19:13:18.485Z,5.67
2022-10-04T19:16:12.484Z,6.20
2022-10-04T19:19:01.203Z,7.93
2022-10-04T19:21:37.419Z,4.60
2022-10-04T19:24:31.614Z,4.90
2022-10-04T19:27:02.127Z,4.13
2022-10-04T19:29:37.510Z,4.73
2022-10-04T19:32:08.926Z,10.57
2022-10-04T19:35:01.733Z,9.90
2022-10-04T19:37:46.477Z,8.73
2022-10-04T19:40:44.246Z,7.40
2022-10-04T19:43:15.597Z,5.43
2022-10-04T19:46:06.749Z,3.97
2022-10-04T19:48:43.600Z,6.00
2022-10-04T19:51:24.343Z,5.70
2022-10-04T19:53:57.570Z,5.33
2022-10-04T19:56:29.348Z,6.10
2022-10-04T19:59:18.460Z,6.40
2022-10-04T20:01:45.861Z,5.33
2022-10-04T20:04:35.565Z,6.87
2022-10-04T20:07:17.648Z,7.97
2022-10-04T20:09:47.743Z,6.13
2022-10-04T20:12:35.420Z,4.20
2022-10-04T20:15:17.121Z,3.90
2022-10-04T20:17:45.481Z,4.70
2022-10-04T20:20:37.000Z,5.87
2022-10-04T20:23:03.838Z,6.40
2022-10-04T20:25:45.702Z,11.00
2022-10-04T20:28:27.308Z,6.50
2022-10-04T20:30:58.689Z,4.67
2022-10-04T20:33:34.405Z,6.53
2022-10-04T20:36:02.019Z,5.80
2022-10-04T20:38:48.155Z,5.50
2022-10-04T20:41:52.559Z,4.03
2022-10-04T20:44:42.805Z,7.20
2022-10-04T20:47:42.455Z,9.53
2022-10-04T20:50:33.569Z,6.70
2022-10-04T20:53:04.185Z,5.03
2022-10-04T20:55:38.840Z,4.33
2022-10-04T20:58:21.681Z,4.10
2022-10-04T21:00:54.063Z,4.03
2022-10-04T21:03:21.817Z,5.17
2022-10-04T21:06:08.132Z,4.57
2022-10-04T21:08:36.074Z,6.83
2022-10-04T21:11:20.078Z,5.37
2022-10-04T21:13:54.665Z,5.50
2022-10-04T21:16:42.167Z,6.17
2022-10-04T21:19:33.557Z,9.50
2022-10-04T21:22:07.887Z,4.43
2022-10-04T21:24:41.405Z,5.73
2022-10-04T21:27:24.828Z,4.90
2022-10-04T21:29:54.169Z,5.10
2022-10-04T21:32:21.303Z,3.27
2022-10-04T21:34:53.434Z,7.60
2022-10-04T21:37:20.925Z,5.37
2022-10-04T21:39:47.587Z,5.63
2022-10-04T21:42:14.114Z,6.30
2022-10-04T21:44:40.730Z,3.30
2022-10-04T21:47:07.263Z,6.53
2022-10-04T21:49:33.849Z,5.50
2022-10-04T21:52:00.459Z,3.13
2022-10-04T21:54:27.029Z,4.50
2022-10-04T21:56:53.977Z,3.03
2022-10-04T21:59:21.207Z,5.40
2022-10-04T22:01:47.765Z,3.50
2022-10-04T22:04:14.313Z,4.33
2022-10-04T22:06:41.205Z,3.97
2022-10-04T22:09:08.290Z,3.70
2022-10-04T22:11:35.098Z,4.23
2022-10-04T22:14:01.779Z,17.47
2022-10-04T22:16:28.531Z,9.50
2022-10-04T22:18:55.179Z,8.60
2022-10-04T22:21:21.842Z,4.97
2022-10-04T22:23:48.498Z,9.80
2022-10-04T22:26:17.736Z,5.30
2022-10-04T22:28:47.465Z,3.70
2022-10-04T22:31:16.978Z,5.43
2022-10-04T22:33:45.820Z,4.50
2022-10-04T22:36:33.809Z,7.67
2022-10-04T22:39:09.187Z,4.13
2022-10-04T22:41:40.160Z,4.90
2022-10-04T22:44:24.041Z,4.77
2022-10-04T22:46:55.933Z,5.90
2022-10-04T22:49:31.769Z,7.80
2022-10-04T22:52:00.387Z,8.40
2022-10-04T22:54:31.292Z,8.57
2022-10-04T22:56:58.571Z,4.90
2022-10-04T22:59:35.069Z,4.17
2022-10-04T23:02:12.909Z,7.60
2022-10-04T23:04:41.374Z,6.27
2022-10-04T23:07:08.016Z,4.40
2022-10-04T23:09:34.602Z,3.80
2022-10-04T23:12:01.208Z,6.40
2022-10-04T23:14:27.741Z,3.20
2022-10-04T23:16:54.271Z,8.87
2022-10-04T23:19:20.801Z,5.03
2022-10-04T23:21:49.389Z,3.40
2022-10-04T23:24:18.710Z,4.27
2022-10-04T23:26:49.083Z,4.90
2022-10-04T23:29:25.959Z,5.87
2022-10-04T23:31:52.765Z,5.63
2022-10-04T23:34:26.193Z,3.37
2022-10-04T23:36:52.867Z,4.20
2022-10-04T23:39:25.562Z,5.50
2022-10-04T23:41:53.921Z,4.23
2022-10-04T23:44:23.410Z,4.57
2022-10-04T23:46:50.685Z,8.93
2022-10-04T23:49:20.059Z,5.83
2022-10-04T23:51:47.976Z,3.97
2022-10-04T23:54:17.692Z,5.77
2022-10-04T23:56:45.520Z,6.30
2022-10-04T23:59:18.752Z,4.43
